Time;durP1;ratioP1;P1;durP2;ratioP2;P2;SDS_P1;SDS_P2;PMS_P1;PMS_P2;Temp;Humidity;BMP_temperature;BMP_pressure;BME280_temperature;BME280_humidity;BME280_pressure;Samples;Min_cycle;Max_cycle;Signal;HPM_P1;HPM_P2
2023/02/08 00:01:51;;;;;;;21.88;9.80;;;-0.40;99.90;;;;;;5030233;28;20383;-54
2023/02/08 00:04:17;;;;;;;17.00;8.40;;;-1.70;99.90;;;;;;5030739;28;20718;-55
2023/02/08 00:06:43;;;;;;;22.15;9.50;;;-1.60;99.90;;;;;;5030844;28;20414;-55
2023/02/08 00:09:08;;;;;;;20.83;8.38;;;-1.70;1.00;;;;;;5029706;28;20875;-55
2023/02/08 00:11:34;;;;;;;19.47;9.13;;;-1.70;1.00;;;;;;5030977;28;20807;-55
2023/02/08 00:14:00;;;;;;;22.30;9.57;;;-1.90;1.00;;;;;;5029685;28;20410;-55
2023/02/08 00:16:26;;;;;;;23.47;10.20;;;-1.90;1.00;;;;;;5012416;28;20423;-55
2023/02/08 00:18:51;;;;;;;20.35;8.88;;;-1.90;1.00;;;;;;5030137;28;20387;-54
2023/02/08 00:21:18;;;;;;;23.57;8.80;;;-1.90;1.00;;;;;;5030874;28;20387;-55
2023/02/08 00:23:45;;;;;;;23.27;9.40;;;-1.90;1.00;;;;;;5030555;28;20483;-55
2023/02/08 00:26:11;;;;;;;21.02;9.30;;;-1.90;1.00;;;;;;5030016;28;20502;-54
2023/02/08 00:28:37;;;;;;;18.10;8.10;;;-2.10;1.00;;;;;;5030353;28;20548;-54
2023/02/08 00:31:02;;;;;;;21.43;7.97;;;-1.90;1.00;;;;;;5030097;28;20391;-54
2023/02/08 00:33:28;;;;;;;17.97;8.00;;;-2.00;1.00;;;;;;5030758;28;20461;-55
2023/02/08 00:36:01;;;;;;;22.90;9.13;;;-2.00;1.00;;;;;;5029657;28;20379;-55
2023/02/08 00:38:27;;;;;;;22.17;8.55;;;-2.10;1.00;;;;;;5030324;28;20895;-55
2023/02/08 00:40:52;;;;;;;21.63;9.32;;;-2.20;1.00;;;;;;5029875;28;20848;-55
2023/02/08 00:43:18;;;;;;;20.48;9.85;;;-2.30;1.00;;;;;;5030406;28;20506;-55
2023/02/08 00:45:44;;;;;;;22.55;10.30;;;-2.40;1.00;;;;;;5030304;28;20415;-55
2023/02/08 00:48:09;;;;;;;26.67;10.63;;;-2.50;1.00;;;;;;5029428;28;20570;-55
2023/02/08 00:50:35;;;;;;;25.13;9.63;;;-2.60;1.00;;;;;;5029840;28;20391;-55
2023/02/08 00:53:00;;;;;;;24.15;10.27;;;-2.60;99.90;;;;;;5028682;28;20383;-55
2023/02/08 00:55:27;;;;;;;25.60;9.30;;;-2.60;99.90;;;;;;5030180;28;20380;-55
2023/02/08 00:57:52;;;;;;;20.15;9.27;;;-2.50;99.90;;;;;;5029302;28;20421;-55
2023/02/08 01:00:18;;;;;;;23.05;10.90;;;-2.70;99.90;;;;;;5030265;28;20371;-55
2023/02/08 01:02:44;;;;;;;25.70;10.40;;;-2.50;99.90;;;;;;5012459;28;20741;-54
2023/02/08 01:05:09;;;;;;;26.87;10.50;;;-2.60;99.90;;;;;;5029238;28;20566;-55
2023/02/08 01:07:38;;;;;;;18.50;9.00;;;-2.60;99.90;;;;;;5029892;28;20888;-55
2023/02/08 01:10:06;;;;;;;19.80;8.70;;;-2.70;1.00;;;;;;5029114;28;20387;-55
2023/02/08 01:12:32;;;;;;;21.58;9.70;;;-2.60;1.00;;;;;;5029925;28;20395;-54
2023/02/08 01:14:57;;;;;;;22.08;9.88;;;-2.60;1.00;;;;;;5029193;28;20387;-56
2023/02/08 01:17:23;;;;;;;19.23;9.00;;;-2.50;81.80;;;;;;5029566;28;20900;-55
2023/02/08 01:19:48;;;;;;;18.60;9.60;;;-2.60;99.90;;;;;;5011992;28;20486;-55
2023/02/08 01:22:14;;;;;;;23.02;10.55;;;-2.60;99.90;;;;;;5029019;28;20746;-55
2023/02/08 01:24:40;;;;;;;18.73;9.32;;;-2.60;99.90;;;;;;5029817;28;20379;-55
2023/02/08 01:27:05;;;;;;;21.37;10.13;;;-2.50;99.90;;;;;;5028522;28;20411;-55
2023/02/08 01:29:31;;;;;;;20.20;9.63;;;-2.50;99.90;;;;;;5029497;28;20387;-55
2023/02/08 01:31:56;;;;;;;20.67;10.43;;;-2.50;99.90;;;;;;5029146;28;20419;-55
2023/02/08 01:34:22;;;;;;;22.83;10.20;;;-2.60;99.90;;;;;;5029799;28;20391;-55
2023/02/08 01:36:48;;;;;;;23.03;10.13;;;-2.60;99.90;;;;;;5029413;28;20398;-55
2023/02/08 01:39:13;;;;;;;23.92;10.50;;;-2.60;99.90;;;;;;5028897;28;20834;-55
2023/02/08 01:41:43;;;;;;;19.85;10.23;;;-2.30;99.90;;;;;;5029497;28;20732;-55
2023/02/08 01:44:12;;;;;;;22.33;8.65;;;-2.50;99.90;;;;;;5010994;28;21012;-58
2023/02/08 01:46:47;;;;;;;21.77;9.60;;;-2.60;99.90;;;;;;5029557;28;20815;-55
2023/02/08 01:49:20;;;;;;;20.83;10.18;;;-2.60;99.90;;;;;;5028617;28;20402;-55
2023/02/08 01:52:10;;;;;;;19.77;8.98;;;-2.80;99.90;;;;;;5009675;28;20408;-55
2023/02/08 01:54:41;;;;;;;20.52;10.23;;;-2.70;99.90;;;;;;5009923;28;20387;-55
2023/02/08 01:57:07;;;;;;;21.58;9.65;;;-2.70;99.90;;;;;;5008917;28;20727;-55
2023/02/08 01:59:41;;;;;;;21.70;9.18;;;-2.70;99.90;;;;;;5009627;28;20435;-55
2023/02/08 02:02:12;;;;;;;24.08;9.60;;;-2.80;99.90;;;;;;5009506;28;20416;-55
2023/02/08 02:04:40;;;;;;;22.02;9.52;;;-2.70;99.90;;;;;;5025958;28;20410;-55
2023/02/08 02:07:06;;;;;;;19.65;9.20;;;-2.80;99.90;;;;;;5032629;28;20403;-55
2023/02/08 02:09:52;;;;;;;19.60;9.93;;;-2.70;99.90;;;;;;5032946;28;20717;-55
2023/02/08 02:12:19;;;;;;;22.38;9.70;;;-2.70;99.90;;;;;;5032776;28;20403;-55
2023/02/08 02:14:46;;;;;;;22.52;9.82;;;-2.70;81.40;;;;;;5016927;28;20423;-55
2023/02/08 02:17:14;;;;;;;22.35;10.02;;;-2.60;47.20;;;;;;5032142;28;20407;-55
2023/02/08 02:19:47;;;;;;;22.77;9.15;;;-2.60;7.40;;;;;;5032956;28;20397;-55
2023/02/08 02:22:57;;;;;;;19.75;10.25;;;-2.70;20.00;;;;;;5014181;28;21078;-55
2023/02/08 02:25:48;;;;;;;19.92;9.75;;;-2.70;99.90;;;;;;5013193;28;20483;-54
2023/02/08 02:28:13;;;;;;;18.48;8.85;;;-2.70;99.90;;;;;;5026453;28;20486;-55
2023/02/08 02:31:10;;;;;;;20.40;8.97;;;-2.80;99.90;;;;;;5014774;28;20490;-55
2023/02/08 02:33:43;;;;;;;18.92;8.65;;;-2.80;99.90;;;;;;5032384;28;20394;-55
2023/02/08 02:36:18;;;;;;;21.45;8.70;;;-2.90;99.90;;;;;;5031954;28;20478;-55
2023/02/08 02:39:03;;;;;;;20.90;10.23;;;-2.90;99.90;;;;;;5032383;28;20721;-55
2023/02/08 02:44:59;;;;;;;18.80;9.27;;;-2.90;99.90;;;;;;5032420;28;20959;-55
2023/02/08 02:48:01;;;;;;;22.40;9.10;;;-2.90;99.90;;;;;;5032134;28;20453;-55
2023/02/08 02:50:35;;;;;;;25.55;10.05;;;-3.10;99.90;;;;;;5032303;28;20424;-55
2023/02/08 02:53:10;;;;;;;18.88;8.95;;;-3.20;99.90;;;;;;5031777;28;20398;-55
2023/02/08 02:55:41;;;;;;;19.45;8.98;;;-3.30;99.90;;;;;;5032317;28;20418;-55
2023/02/08 02:58:10;;;;;;;15.23;7.95;;;-3.40;1.00;;;;;;5031540;28;20387;-55
2023/02/08 03:00:36;;;;;;;19.42;8.75;;;-3.40;1.00;;;;;;5032005;28;20422;-55
2023/02/08 03:03:02;;;;;;;18.55;8.43;;;-3.40;1.00;;;;;;5031670;28;20887;-55
2023/02/08 03:05:28;;;;;;;21.23;9.38;;;-3.40;1.00;;;;;;5031591;28;20407;-55
2023/02/08 03:08:07;;;;;;;23.15;9.63;;;-3.40;1.00;;;;;;5031515;28;20393;-55
2023/02/08 03:10:51;;;;;;;20.48;8.13;;;-3.30;5.70;;;;;;5032172;28;20398;-55
2023/02/08 03:13:36;;;;;;;21.52;9.88;;;-3.30;1.00;;;;;;5031981;28;20433;-55
2023/02/08 03:16:07;;;;;;;17.45;8.68;;;-3.40;54.80;;;;;;5030749;28;20481;-55
2023/02/08 03:18:48;;;;;;;19.83;8.45;;;-3.40;99.90;;;;;;5032177;28;20612;-56
2023/02/08 03:21:27;;;;;;;19.38;9.85;;;-3.40;99.90;;;;;;5031169;28;20387;-55
2023/02/08 03:24:06;;;;;;;25.02;9.57;;;-3.40;99.90;;;;;;5031380;28;20457;-56
2023/02/08 03:26:42;;;;;;;22.00;8.43;;;-3.50;99.90;;;;;;5031871;28;20603;-56
2023/02/08 03:29:31;;;;;;;17.02;8.02;;;-3.50;99.90;;;;;;5031126;28;20874;-55
2023/02/08 03:32:01;;;;;;;16.13;8.20;;;-3.40;99.90;;;;;;5032666;28;20395;-56
2023/02/08 03:34:54;;;;;;;20.20;9.10;;;-3.30;99.90;;;;;;5031571;28;20416;-55
2023/02/08 03:37:23;;;;;;;15.80;8.07;;;-3.40;99.90;;;;;;5031437;28;20406;-55
2023/02/08 03:39:53;;;;;;;15.63;8.02;;;-3.40;99.90;;;;;;5031625;28;20482;-56
2023/02/08 03:42:24;;;;;;;19.35;9.10;;;-3.50;99.90;;;;;;5031291;28;20382;-56
2023/02/08 03:45:09;;;;;;;18.58;8.63;;;-3.50;99.90;;;;;;5031428;28;20372;-55
2023/02/08 03:47:39;;;;;;;18.70;8.80;;;-3.60;99.90;;;;;;5031395;28;20434;-55
2023/02/08 03:50:09;;;;;;;17.50;7.60;;;-3.60;99.90;;;;;;5025909;28;20407;-55
2023/02/08 03:52:35;;;;;;;19.17;8.57;;;-3.60;99.90;;;;;;5031405;28;20498;-55
2023/02/08 03:55:10;;;;;;;17.52;8.15;;;-3.60;99.90;;;;;;5030637;28;20414;-55
2023/02/08 03:57:48;;;;;;;19.88;8.80;;;-3.50;99.90;;;;;;5031128;28;20445;-55
2023/02/08 04:00:15;;;;;;;18.65;8.15;;;-3.60;99.90;;;;;;5029523;28;20559;-56
2023/02/08 04:03:00;;;;;;;17.90;8.07;;;-3.60;1.00;;;;;;5030473;28;20441;-60
2023/02/08 04:05:27;;;;;;;19.45;8.65;;;-3.70;1.00;;;;;;5031545;28;20458;-55
2023/02/08 04:07:52;;;;;;;17.80;8.20;;;-3.60;1.00;;;;;;5030089;28;20427;-56
2023/02/08 04:10:18;;;;;;;21.60;9.00;;;-3.50;1.00;;;;;;5030706;28;20764;-55
2023/02/08 04:12:47;;;;;;;18.47;7.60;;;-3.60;1.00;;;;;;5031339;28;20375;-55
2023/02/08 04:15:13;;;;;;;21.15;9.45;;;-3.50;1.00;;;;;;5029692;28;20574;-55
2023/02/08 04:17:39;;;;;;;19.73;8.23;;;-3.50;1.00;;;;;;5030514;28;20406;-55
2023/02/08 04:20:05;;;;;;;20.58;8.15;;;-3.50;99.90;;;;;;5030077;28;20930;-56
2023/02/08 04:22:32;;;;;;;16.48;7.78;;;-3.60;99.90;;;;;;5030597;28;20465;-55
2023/02/08 04:24:58;;;;;;;19.30;7.82;;;-3.60;99.90;;;;;;5030008;28;20506;-56
2023/02/08 04:27:24;;;;;;;17.75;7.45;;;-3.60;99.90;;;;;;5030586;28;20415;-56
2023/02/08 04:29:49;;;;;;;15.48;7.00;;;-3.60;99.90;;;;;;5030799;28;20505;-55
2023/02/08 04:32:15;;;;;;;20.13;8.90;;;-3.60;99.90;;;;;;5030019;28;20452;-55
2023/02/08 04:34:40;;;;;;;19.00;8.30;;;-3.80;99.90;;;;;;5030755;28;20716;-55
2023/02/08 04:37:07;;;;;;;16.43;6.67;;;-3.70;99.90;;;;;;5029141;28;20556;-56
2023/02/08 04:39:32;;;;;;;22.07;8.73;;;-3.80;99.90;;;;;;5030390;28;20379;-55
2023/02/08 04:41:58;;;;;;;15.00;7.30;;;-3.90;99.90;;;;;;5029340;28;20404;-56
2023/02/08 04:44:24;;;;;;;18.95;7.68;;;-3.80;99.90;;;;;;5030096;28;20402;-55
2023/02/08 04:46:50;;;;;;;19.73;7.90;;;-3.90;99.90;;;;;;5030234;28;20521;-55
2023/02/08 04:49:15;;;;;;;17.50;8.20;;;-3.90;99.90;;;;;;5029681;28;21151;-56
2023/02/08 04:51:41;;;;;;;16.90;7.70;;;-3.90;99.90;;;;;;5029463;28;20838;-55
2023/02/08 04:54:07;;;;;;;21.23;9.07;;;-3.90;1.00;;;;;;5029341;28;20398;-55
2023/02/08 04:56:33;;;;;;;23.65;8.90;;;-3.90;1.00;;;;;;5030685;28;20391;-55
2023/02/08 04:58:59;;;;;;;16.77;7.78;;;-3.90;1.00;;;;;;5029160;28;20406;-56
2023/02/08 05:01:25;;;;;;;16.80;8.23;;;-3.90;1.00;;;;;;5028724;28;20888;-55
2023/02/08 05:03:50;;;;;;;17.60;7.90;;;-3.90;1.00;;;;;;5029483;28;20410;-56
2023/02/08 05:06:16;;;;;;;21.38;8.43;;;-4.00;1.00;;;;;;5029429;28;20711;-55
2023/02/08 05:08:41;;;;;;;17.35;8.43;;;-3.90;1.00;;;;;;5029253;28;20838;-55
2023/02/08 05:11:07;;;;;;;16.13;7.57;;;-3.90;1.00;;;;;;5011656;28;20395;-55
2023/02/08 05:13:33;;;;;;;16.67;7.60;;;-3.90;1.00;;;;;;5028959;28;20403;-55
2023/02/08 05:15:58;;;;;;;18.03;8.67;;;-3.90;1.00;;;;;;5028731;28;20426;-54
2023/02/08 05:18:24;;;;;;;18.73;7.88;;;-3.90;1.00;;;;;;5029726;28;20442;-55
2023/02/08 05:20:57;;;;;;;16.08;7.90;;;-3.90;99.90;;;;;;5030195;28;20723;-55
2023/02/08 05:23:24;;;;;;;15.95;7.68;;;-3.80;99.90;;;;;;5029988;28;20864;-55
2023/02/08 05:25:50;;;;;;;24.40;11.20;;;-3.80;99.90;;;;;;5029958;28;20415;-55
2023/02/08 05:28:16;;;;;;;23.67;9.60;;;-3.90;99.90;;;;;;5028757;28;21053;-56
2023/02/08 05:30:41;;;;;;;18.65;8.60;;;-4.00;99.90;;;;;;5029585;28;20382;-55
2023/02/08 05:33:07;;;;;;;19.85;8.70;;;-4.00;99.90;;;;;;5029269;28;20482;-55
2023/02/08 05:35:33;;;;;;;23.08;9.45;;;-4.00;99.90;;;;;;5029314;28;20809;-55
2023/02/08 05:37:58;;;;;;;21.13;9.30;;;-2.80;1.00;;;;;;5028116;28;20395;-55
2023/02/08 05:40:24;;;;;;;17.20;9.17;;;-4.10;1.00;;;;;;5029714;28;20391;-55
2023/02/08 05:42:49;;;;;;;18.77;9.43;;;-4.00;1.00;;;;;;5029693;28;20751;-55
2023/02/08 05:45:15;;;;;;;19.55;9.85;;;-4.00;1.00;;;;;;5028708;28;20406;-55
2023/02/08 05:47:41;;;;;;;23.45;10.50;;;-4.10;1.00;;;;;;5029446;28;20405;-55
2023/02/08 05:50:08;;;;;;;17.38;9.38;;;-4.00;1.00;;;;;;5028732;28;20387;-55
2023/02/08 05:52:33;;;;;;;20.33;9.25;;;-3.90;1.00;;;;;;5029218;28;20486;-55
2023/02/08 05:54:59;;;;;;;18.60;9.30;;;-3.80;1.00;;;;;;5028854;28;20541;-56
2023/02/08 05:57:25;;;;;;;24.00;11.30;;;-3.90;1.00;;;;;;5029464;28;20387;-55
2023/02/08 05:59:50;;;;;;;30.43;11.43;;;-4.00;1.00;;;;;;5028278;28;20510;-55
2023/02/08 06:02:16;;;;;;;24.80;12.55;;;-4.00;16.20;;;;;;5028561;28;20386;-55
2023/02/08 06:04:41;;;;;;;23.65;11.40;;;-4.00;79.40;;;;;;5029201;28;20394;-56
2023/02/08 06:07:07;;;;;;;22.37;10.60;;;-4.10;99.90;;;;;;5028558;28;20510;-55
2023/02/08 06:09:32;;;;;;;21.27;10.33;;;-4.00;99.90;;;;;;5029502;28;20387;-56
2023/02/08 06:11:58;;;;;;;22.10;11.07;;;-4.10;99.90;;;;;;5010762;28;20384;-55
2023/02/08 06:14:24;;;;;;;30.50;10.65;;;-4.20;99.90;;;;;;5029587;28;20394;-56
2023/02/08 06:16:49;;;;;;;23.07;9.50;;;-4.10;1.00;;;;;;5028933;28;20426;-55
2023/02/08 06:19:15;;;;;;;24.80;10.10;;;-3.90;1.00;;;;;;5027434;28;20852;-55
2023/02/08 06:21:41;;;;;;;22.85;10.43;;;-3.90;99.90;;;;;;5028531;28;20375;-56
2023/02/08 06:24:06;;;;;;;20.95;9.60;;;-4.00;99.90;;;;;;5028063;28;20682;-55
2023/02/08 06:26:33;;;;;;;20.35;10.35;;;-3.90;99.90;;;;;;5010388;28;20446;-56
2023/02/08 06:28:59;;;;;;;24.90;10.23;;;-4.10;99.90;;;;;;5028580;28;20441;-56
2023/02/08 06:31:25;;;;;;;22.05;9.30;;;-4.10;99.90;;;;;;5029116;28;20375;-56
2023/02/08 06:33:50;;;;;;;19.20;9.60;;;-4.10;99.90;;;;;;5028668;28;20962;-56
2023/02/08 06:36:16;;;;;;;30.07;9.57;;;-4.10;99.90;;;;;;5028215;28;20379;-56
2023/02/08 06:38:41;;;;;;;25.23;9.20;;;-3.90;99.90;;;;;;5028808;28;20478;-56
2023/02/08 06:41:07;;;;;;;18.23;8.40;;;-4.00;99.90;;;;;;5028332;28;20382;-56
2023/02/08 06:43:33;;;;;;;22.48;8.48;;;-4.00;99.90;;;;;;5028884;28;20383;-56
2023/02/08 06:46:03;;;;;;;18.85;8.93;;;-3.90;99.90;;;;;;5028074;28;20406;-56
2023/02/08 06:48:30;;;;;;;20.17;8.57;;;-3.90;1.00;;;;;;5029002;28;20506;-56
2023/02/08 06:50:55;;;;;;;22.05;7.78;;;-3.70;1.00;;;;;;5031233;28;20537;-56
2023/02/08 06:53:21;;;;;;;20.60;9.25;;;-3.60;1.00;;;;;;5031718;28;20967;-56
2023/02/08 06:55:48;;;;;;;23.13;9.27;;;-3.60;99.90;;;;;;5032439;28;20485;-56
2023/02/08 06:58:14;;;;;;;23.75;9.35;;;-3.60;99.90;;;;;;5013637;28;20403;-56
2023/02/08 07:00:39;;;;;;;27.97;9.57;;;-3.50;99.90;;;;;;5031670;28;20414;-56
2023/02/08 07:03:05;;;;;;;16.87;7.43;;;-3.50;99.90;;;;;;5031461;28;20386;-56
2023/02/08 07:05:34;;;;;;;23.80;9.55;;;-3.40;99.90;;;;;;5019965;28;20416;-56
2023/02/08 07:07:59;;;;;;;27.90;9.68;;;-3.30;99.90;;;;;;5022987;28;20485;-56
2023/02/08 07:10:25;;;;;;;30.70;11.90;;;-3.10;99.90;;;;;;5032127;28;20923;-56
2023/02/08 07:12:50;;;;;;;29.07;12.60;;;-3.10;43.60;;;;;;5030685;28;20736;-56
2023/02/08 07:15:16;;;;;;;26.35;10.02;;;-3.10;1.00;;;;;;5030788;28;20466;-56
2023/02/08 07:17:42;;;;;;;25.02;9.68;;;-3.10;1.00;;;;;;5031577;28;20417;-56
2023/02/08 07:20:10;;;;;;;23.13;9.70;;;-3.00;1.00;;;;;;5030828;28;21220;-56
2023/02/08 07:22:36;;;;;;;19.05;9.02;;;-2.90;1.00;;;;;;5026684;28;20782;-56
2023/02/08 07:25:02;;;;;;;19.80;8.63;;;-2.80;1.00;;;;;;5031443;28;20419;-56
2023/02/08 07:27:27;;;;;;;23.70;9.48;;;-2.60;1.00;;;;;;5030648;28;20496;-56
2023/02/08 07:29:53;;;;;;;22.52;8.82;;;-2.50;1.00;;;;;;5031713;28;20760;-56
2023/02/08 07:32:19;;;;;;;20.23;9.70;;;-2.30;1.00;;;;;;5030448;28;20383;-56
2023/02/08 07:34:45;;;;;;;23.73;10.37;;;-2.20;1.00;;;;;;5031623;28;20387;-56
2023/02/08 07:37:11;;;;;;;24.83;11.10;;;-2.10;1.00;;;;;;5030694;28;20395;-57
2023/02/08 07:39:36;;;;;;;28.43;11.60;;;-2.00;1.00;;;;;;5031280;28;20747;-56
2023/02/08 07:42:04;;;;;;;27.83;11.60;;;-1.80;1.00;;;;;;5030581;28;20486;-56
2023/02/08 07:44:29;;;;;;;26.17;12.25;;;-1.60;1.00;;;;;;5031262;28;20417;-57
2023/02/08 07:46:55;;;;;;;25.57;11.10;;;-1.20;1.00;;;;;;5030968;28;20896;-57
2023/02/08 07:49:21;;;;;;;27.60;10.07;;;-0.50;1.00;;;;;;5012538;28;20395;-57
2023/02/08 07:51:46;;;;;;;18.27;8.40;;;0.90;1.00;;;;;;5030845;28;21046;-57
2023/02/08 07:54:12;;;;;;;22.70;10.23;;;2.80;99.90;;;;;;5029935;28;20498;-58
2023/02/08 07:56:37;;;;;;;24.75;11.32;;;5.00;99.90;;;;;;5031128;28;20399;-58
2023/02/08 07:59:04;;;;;;;20.33;9.70;;;6.90;99.90;;;;;;5012415;28;20872;-58
2023/02/08 08:01:29;;;;;;;22.47;10.43;;;8.50;99.90;;;;;;5030551;28;20414;-58
2023/02/08 08:03:55;;;;;;;22.70;12.00;;;9.50;99.90;;;;;;5030994;28;20422;-58
2023/02/08 08:06:22;;;;;;;22.70;13.13;;;9.80;99.90;;;;;;5029440;28;20500;-58
2023/02/08 08:08:48;;;;;;;21.30;12.43;;;10.30;99.90;;;;;;5013080;28;20398;-58
2023/02/08 08:11:15;;;;;;;27.52;15.52;;;10.20;99.90;;;;;;5012580;28;20995;-58
2023/02/08 08:13:41;;;;;;;22.88;15.88;;;10.70;99.90;;;;;;5030643;28;20466;-59
2023/02/08 08:16:08;;;;;;;26.07;16.83;;;11.50;99.90;;;;;;5029095;28;20487;-58
2023/02/08 08:18:34;;;;;;;24.93;17.30;;;11.70;99.90;;;;;;5006974;28;20412;-59
2023/02/08 08:21:00;;;;;;;22.25;14.93;;;11.90;99.90;;;;;;5017001;28;20455;-58
2023/02/08 08:23:27;;;;;;;20.48;14.63;;;12.50;99.90;;;;;;5010851;28;20494;-59
2023/02/08 08:25:54;;;;;;;22.73;15.82;;;12.70;99.90;;;;;;5015979;28;20563;-59
2023/02/08 08:28:19;;;;;;;25.73;15.23;;;12.90;99.90;;;;;;5023516;28;20473;-58
2023/02/08 08:30:45;;;;;;;28.08;17.17;;;12.90;99.90;;;;;;5030856;28;20466;-58
2023/02/08 08:33:13;;;;;;;24.53;16.77;;;12.50;99.90;;;;;;5029839;28;20541;-58
2023/02/08 08:35:39;;;;;;;23.58;17.80;;;12.80;99.90;;;;;;5030423;28;20895;-58
2023/02/08 08:38:04;;;;;;;24.50;18.58;;;13.80;99.90;;;;;;5029587;28;20478;-58
2023/02/08 08:40:30;;;;;;;21.27;16.53;;;13.20;99.90;;;;;;5030546;28;20871;-58
2023/02/08 08:42:56;;;;;;;24.13;16.30;;;13.20;99.90;;;;;;5000128;28;20821;-58
2023/02/08 08:45:22;;;;;;;25.60;16.25;;;12.60;99.90;;;;;;5029675;28;20395;-58
2023/02/08 08:47:47;;;;;;;22.30;16.10;;;12.70;99.90;;;;;;5030494;28;20411;-58
2023/02/08 08:50:13;;;;;;;21.03;16.60;;;13.50;99.90;;;;;;5029091;28;20898;-58
2023/02/08 08:52:39;;;;;;;23.85;16.35;;;13.90;99.90;;;;;;5030255;28;20387;-58
2023/02/08 08:55:06;;;;;;;20.65;16.80;;;14.60;99.90;;;;;;5028214;28;20468;-58
2023/02/08 08:57:31;;;;;;;23.55;15.93;;;14.80;99.90;;;;;;5029769;28;20403;-59
2023/02/08 08:59:57;;;;;;;21.10;15.57;;;14.60;99.90;;;;;;5029841;28;20869;-58
2023/02/08 09:02:23;;;;;;;21.93;15.93;;;14.10;99.90;;;;;;5029964;28;20403;-58
2023/02/08 09:04:49;;;;;;;25.25;17.45;;;14.30;99.90;;;;;;5026950;28;20781;-58
2023/02/08 09:07:14;;;;;;;21.57;16.33;;;14.30;99.90;;;;;;5023319;28;20411;-58
2023/02/08 09:09:46;;;;;;;23.40;17.63;;;14.00;99.90;;;;;;5029822;28;20391;-58
2023/02/08 09:12:13;;;;;;;22.80;16.55;;;13.80;99.90;;;;;;5027720;28;20403;-58
2023/02/08 09:14:39;;;;;;;22.23;17.38;;;14.20;99.90;;;;;;5011368;28;20892;-59
2023/02/08 09:17:05;;;;;;;25.37;17.27;;;14.40;99.90;;;;;;5028451;28;20422;-56
2023/02/08 09:19:31;;;;;;;23.27;17.03;;;14.00;99.90;;;;;;5029928;28;20383;-57
2023/02/08 09:21:56;;;;;;;21.67;16.33;;;13.80;99.90;;;;;;5029533;28;20872;-57
2023/02/08 09:24:29;;;;;;;24.30;19.10;;;13.80;99.90;;;;;;5028602;28;20410;-57
2023/02/08 09:26:54;;;;;;;23.87;16.57;;;13.80;99.90;;;;;;5029305;28;20799;-57
2023/02/08 09:29:20;;;;;;;20.00;17.25;;;;;;;;;;5028703;28;20399;-57
2023/02/08 09:31:46;;;;;;;23.58;17.17;;;12.90;99.90;;;;;;5029573;28;20439;-57
2023/02/08 09:34:11;;;;;;;26.30;17.90;;;13.10;99.90;;;;;;5022190;28;20430;-57
2023/02/08 09:36:39;;;;;;;22.95;18.00;;;13.20;99.90;;;;;;5029403;28;20876;-60
2023/02/08 09:39:13;;;;;;;21.88;18.40;;;12.70;99.90;;;;;;5024845;28;20402;-57
2023/02/08 09:41:45;;;;;;;22.60;18.10;;;12.80;99.90;;;;;;5024481;28;20490;-57
2023/02/08 09:44:17;;;;;;;24.57;17.37;;;12.90;99.90;;;;;;5023119;28;20421;-57
2023/02/08 09:46:56;;;;;;;20.60;17.02;;;13.40;99.90;;;;;;5028850;28;20488;-57
2023/02/08 09:49:30;;;;;;;22.75;16.52;;;13.30;99.90;;;;;;5028480;28;20487;-57
2023/02/08 09:52:14;;;;;;;20.60;15.02;;;11.90;99.90;;;;;;5029100;28;20437;-57
2023/02/08 09:54:45;;;;;;;23.42;15.13;;;11.50;99.90;;;;;;5029560;28;20398;-56
2023/02/08 09:57:17;;;;;;;21.77;14.40;;;10.50;99.90;;;;;;5028088;28;21064;-56
2023/02/08 09:59:53;;;;;;;21.70;14.38;;;10.20;99.90;;;;;;5016724;28;20399;-56
2023/02/08 10:02:33;;;;;;;20.00;12.80;;;10.30;99.90;;;;;;5028382;28;20499;-57
2023/02/08 10:05:25;;;;;;;23.02;13.02;;;10.10;99.90;;;;;;5028875;28;20387;-57
2023/02/08 10:07:55;;;;;;;18.98;13.20;;;9.90;99.90;;;;;;5021869;28;20472;-57
2023/02/08 10:10:47;;;;;;;19.13;12.98;;;9.70;99.90;;;;;;5025325;28;20414;-57
2023/02/08 10:13:24;;;;;;;20.48;13.38;;;9.60;99.90;;;;;;5000120;28;20945;-57
2023/02/08 10:15:59;;;;;;;18.67;13.40;;;10.20;99.90;;;;;;5011962;28;20662;-57
2023/02/08 10:18:48;;;;;;;23.20;13.40;;;10.60;99.90;;;;;;5028742;28;20423;-58
2023/02/08 10:21:45;;;;;;;21.38;13.70;;;11.20;99.90;;;;;;5028342;28;20461;-57
2023/02/08 10:24:36;;;;;;;19.30;13.15;;;11.10;99.90;;;;;;5029949;28;20391;-58
2023/02/08 10:27:12;;;;;;;21.27;13.35;;;10.50;99.90;;;;;;5011421;28;20419;-57
2023/02/08 10:30:07;;;;;;;18.73;12.60;;;11.00;99.90;;;;;;5032356;28;20406;-58
2023/02/08 10:32:50;;;;;;;20.63;12.93;;;11.70;99.90;;;;;;4939280;28;20424;-57
2023/02/08 10:35:34;;;;;;;22.35;13.70;;;12.20;99.90;;;;;;5031309;28;20413;-57
2023/02/08 10:37:59;;;;;;;21.33;13.27;;;12.80;99.90;;;;;;5031559;28;20417;-57
2023/02/08 10:40:36;;;;;;;21.67;14.20;;;12.90;99.90;;;;;;5011630;28;20413;-57
2023/02/08 10:43:29;;;;;;;21.70;13.80;;;12.00;99.90;;;;;;5027147;28;20422;-57
2023/02/08 10:46:15;;;;;;;18.97;12.70;;;11.80;99.90;;;;;;5031621;28;20918;-56
2023/02/08 10:49:02;;;;;;;20.15;12.35;;;11.40;99.90;;;;;;5025811;28;20420;-56
2023/02/08 10:51:29;;;;;;;21.80;13.10;;;10.70;99.90;;;;;;5026719;28;20405;-56
2023/02/08 10:53:57;;;;;;;20.57;13.60;;;10.90;99.90;;;;;;5032462;28;20387;-57
2023/02/08 10:56:28;;;;;;;18.73;12.68;;;10.60;99.90;;;;;;5031496;28;20951;-57
2023/02/08 10:58:54;;;;;;;20.73;12.43;;;10.80;99.90;;;;;;5031908;28;20431;-57
2023/02/08 11:01:28;;;;;;;21.60;12.90;;;10.50;99.90;;;;;;5031130;28;20402;-57
2023/02/08 11:04:11;;;;;;;17.30;11.50;;;10.90;99.90;;;;;;5031306;28;20987;-57
2023/02/08 11:06:40;;;;;;;21.10;13.13;;;11.30;99.90;;;;;;5025843;28;20867;-57
2023/02/08 11:09:06;;;;;;;23.60;14.35;;;11.80;99.90;;;;;;5022415;28;20387;-57
2023/02/08 11:11:41;;;;;;;19.37;14.00;;;12.40;99.90;;;;;;5031979;28;20401;-57
2023/02/08 11:14:14;;;;;;;19.20;13.93;;;12.50;99.90;;;;;;5030456;28;20895;-57
2023/02/08 11:16:47;;;;;;;22.58;15.18;;;12.10;99.90;;;;;;5031044;28;20764;-57
2023/02/08 11:19:35;;;;;;;21.85;15.48;;;12.40;99.90;;;;;;5030524;28;20883;-57
2023/02/08 11:22:04;;;;;;;19.00;14.32;;;12.90;99.90;;;;;;5028814;28;20479;-57
2023/02/08 11:24:42;;;;;;;22.38;15.45;;;12.60;99.90;;;;;;5031696;28;20402;-57
2023/02/08 11:27:28;;;;;;;22.05;14.98;;;12.60;99.90;;;;;;5031063;28;20451;-56
2023/02/08 11:30:12;;;;;;;19.98;13.82;;;12.40;99.90;;;;;;5029669;28;20399;-57
2023/02/08 11:32:41;;;;;;;20.58;14.68;;;12.50;99.90;;;;;;5031518;28;20914;-57
2023/02/08 11:35:21;;;;;;;19.92;13.30;;;11.80;99.90;;;;;;5012257;28;20395;-57
2023/02/08 11:37:56;;;;;;;19.77;13.10;;;11.40;99.90;;;;;;5031122;28;20418;-58
2023/02/08 11:40:34;;;;;;;18.65;11.95;;;11.20;99.90;;;;;;5028572;28;21095;-57
2023/02/08 11:43:28;;;;;;;18.70;11.55;;;10.30;99.90;;;;;;5027699;28;20717;-56
2023/02/08 11:46:02;;;;;;;20.25;11.70;;;9.90;99.90;;;;;;5030704;28;20410;-57
2023/02/08 11:48:44;;;;;;;17.05;10.70;;;9.30;99.90;;;;;;5031185;28;20411;-57
2023/02/08 11:51:22;;;;;;;15.27;9.88;;;8.70;99.90;;;;;;5024644;28;20675;-58
2023/02/08 11:53:47;;;;;;;13.10;8.80;;;8.20;99.90;;;;;;5031351;28;20376;-58
2023/02/08 11:56:24;;;;;;;17.88;10.30;;;7.30;99.90;;;;;;5029496;28;20907;-57
2023/02/08 11:59:22;;;;;;;14.82;9.27;;;7.20;99.90;;;;;;5029524;28;20395;-57
2023/02/08 12:01:48;;;;;;;18.03;9.00;;;7.00;99.90;;;;;;5029616;28;20398;-56
2023/02/08 12:04:15;;;;;;;15.48;9.50;;;7.00;99.90;;;;;;5029323;28;20485;-56
2023/02/08 12:07:19;;;;;;;16.50;11.10;;;6.70;99.90;;;;;;5027178;28;20561;-57
2023/02/08 12:09:57;;;;;;;15.85;11.27;;;6.90;99.90;;;;;;5012821;28;20487;-57
2023/02/08 12:12:39;;;;;;;15.18;10.10;;;6.80;99.90;;;;;;5026004;28;20471;-57
2023/02/08 12:15:17;;;;;;;15.45;8.30;;;6.90;99.90;;;;;;5023358;28;20415;-57
2023/02/08 12:17:49;;;;;;;15.27;9.88;;;6.90;99.90;;;;;;5030167;28;20434;-57
2023/02/08 12:20:38;;;;;;;15.68;9.45;;;7.20;99.90;;;;;;5030013;28;20383;-57
2023/02/08 12:23:42;;;;;;;16.00;8.77;;;7.50;99.90;;;;;;5012354;28;20876;-57
2023/02/08 12:26:17;;;;;;;14.55;9.23;;;7.80;99.90;;;;;;5012751;28;20418;-57
2023/02/08 12:29:10;;;;;;;12.82;8.90;;;7.50;99.90;;;;;;5030432;28;20776;-57
2023/02/08 12:31:44;;;;;;;11.48;8.35;;;7.50;99.90;;;;;;5018707;28;20445;-57
2023/02/08 12:34:34;;;;;;;14.48;7.43;;;9.10;99.90;;;;;;5027627;28;20463;-57
2023/02/08 12:40:52;;;;;;;13.23;6.27;;;6.90;99.90;;;;;;5028507;28;20414;-57
2023/02/08 12:43:21;;;;;;;13.00;7.20;;;6.80;99.90;;;;;;5014461;28;20411;-57
2023/02/08 12:46:03;;;;;;;12.60;7.10;;;6.80;99.90;;;;;;5029411;28;20749;-57
2023/02/08 12:48:54;;;;;;;11.70;7.20;;;6.80;99.90;;;;;;5029497;28;20807;-57
2023/02/08 12:51:34;;;;;;;12.43;7.00;;;7.00;99.90;;;;;;5025209;28;20423;-57
2023/02/08 12:54:27;;;;;;;9.07;5.38;;;6.10;99.90;;;;;;5029007;28;20466;-57
2023/02/08 12:56:55;;;;;;;13.73;6.55;;;5.80;99.90;;;;;;5018933;28;20402;-57
2023/02/08 12:59:30;;;;;;;11.85;7.20;;;6.90;99.90;;;;;;5025705;28;20403;-57
2023/02/08 13:02:02;;;;;;;15.43;6.30;;;6.30;99.90;;;;;;5022470;28;20376;-57